Cold Bay, AK

8:14 AM AKDT on July 06, 2015 (GMT -0800)
Cold Bay | | Change Station
CLOSE
Current Station
Airport
Location: Cold Bay,
Elevation: 102 ft
Nearby Weather Stations

Elev 102 ft 55.22 °N, 162.73 °W | Updated 21 minutes ago

Rain
Rain Mist
46 °F
Feels Like 39 °F
N
20
Wind Variable Wind from SSE
Gusts 25 mph

Today
High -- | Low -- °F
--% Chance of Precip.
Yesterday
High -- | Low -- °F
Precip. -- in
6:19 AM 11:30 PM
Waning Gibbous, 74% visible
Pressure 29.56 in
Visibility 5.0 miles
Clouds Few 1300 ft
Mostly Cloudy 2200 ft
Overcast 3200 ft
Windchill 39 °F
Dew Point 46 °F
Humidity 100%
Rainfall 0.21 in
Snow Depth Not available.
UV 0 out of 12
Pollen Not available.
Air Quality Not available.
Flu Activity Not available.
METAR PACD 061553Z COR 15017G22KT 5SM RA BR FEW013 BKN022 OVC032 08/08 A2956

More Conditions Fewer Conditions

Pressure 29.56 in
Visibility 5.0 miles
Clouds Few 1300 ft
Mostly Cloudy 2200 ft
Overcast 3200 ft
Windchill 39 °F
Dew Point 46 °F
Humidity 100%
Rainfall 0.21 in
Snow Depth Not available.
UV 0 out of 12
Pollen Not available.
Air Quality Not available.
Flu Activity Not available.
METAR PACD 061553Z COR 15017G22KT 5SM RA BR FEW013 BKN022 OVC032 08/08 A2956

More Conditions Fewer Conditions

10-Day Weather Forecast

×

Almanac

Astronomy

Jul. 06, 2015 Rise Set
Actual Time
Civil Twilight
Nautical Twilight
Astronomical Twilight
Moon
Length of Visible Light
Length of Day
Tomorrow will be .
, % of the Moon is Illuminated

Today's Extremes

State Highs State Lows

Community

WunderPhotos

Upload Photos

1,835,586 photos uploaded!

WunderBlogs® & News

Nearby

Air Quality

  Air Quality AQ Index Pollutant
Not available.

Snow Depth

Station Depth Elevation

Earthquake Activity

City Distance Mag. Time & Date
Minimum magnitude displayed is 2.5.

Coastal Water Temperatures

Place Temperature

Stations

Nearby Weather Stations

Station Location Temp. Windchill Dew Point Humidity Wind Precip. Elev Updated Type